sensor_id;sensor_type;location;lat;lon;timestamp;temperature;humidity
15152;DHT22;7676;50.900;6.234;2023-03-26T00:09:53;10.60;99.90
15152;DHT22;7676;50.900;6.234;2023-03-26T00:24:57;10.80;99.90
15152;DHT22;7676;50.900;6.234;2023-03-26T00:40:00;10.90;99.90
15152;DHT22;7676;50.900;6.234;2023-03-26T00:55:08;11.00;99.90
15152;DHT22;7676;50.900;6.234;2023-03-26T01:10:11;11.00;99.90
15152;DHT22;7676;50.900;6.234;2023-03-26T01:25:16;11.00;99.90
15152;DHT22;7676;50.900;6.234;2023-03-26T01:40:34;10.80;99.90
15152;DHT22;7676;50.900;6.234;2023-03-26T01:55:50;10.90;99.90
15152;DHT22;7676;50.900;6.234;2023-03-26T02:10:58;10.80;99.90
15152;DHT22;7676;50.900;6.234;2023-03-26T02:26:07;11.10;99.90
15152;DHT22;7676;50.900;6.234;2023-03-26T02:41:17;11.00;99.90
15152;DHT22;7676;50.900;6.234;2023-03-26T02:56:32;10.90;99.90
15152;DHT22;7676;50.900;6.234;2023-03-26T03:11:53;11.20;99.90
15152;DHT22;7676;50.900;6.234;2023-03-26T03:26:55;11.40;99.90
15152;DHT22;7676;50.900;6.234;2023-03-26T03:42:10;11.60;99.90
15152;DHT22;7676;50.900;6.234;2023-03-26T03:57:13;11.70;99.90
15152;DHT22;7676;50.900;6.234;2023-03-26T04:12:27;12.00;99.90
15152;DHT22;7676;50.900;6.234;2023-03-26T04:27:34;11.90;99.90
15152;DHT22;7676;50.900;6.234;2023-03-26T04:42:47;11.30;99.90
15152;DHT22;7676;50.900;6.234;2023-03-26T04:57:59;10.70;99.90
15152;DHT22;7676;50.900;6.234;2023-03-26T05:13:25;10.80;99.90
15152;DHT22;7676;50.900;6.234;2023-03-26T05:28:30;10.60;99.90
15152;DHT22;7676;50.900;6.234;2023-03-26T05:43:44;10.70;99.90
15152;DHT22;7676;50.900;6.234;2023-03-26T05:58:54;10.90;99.90
15152;DHT22;7676;50.900;6.234;2023-03-26T06:14:03;10.80;99.90
15152;DHT22;7676;50.900;6.234;2023-03-26T06:29:07;10.30;99.90
15152;DHT22;7676;50.900;6.234;2023-03-26T06:44:26;10.00;99.90
15152;DHT22;7676;50.900;6.234;2023-03-26T06:59:48;10.10;99.90
15152;DHT22;7676;50.900;6.234;2023-03-26T07:15:16;9.90;99.90
15152;DHT22;7676;50.900;6.234;2023-03-26T07:30:36;10.20;99.90
15152;DHT22;7676;50.900;6.234;2023-03-26T07:46:11;10.30;99.90
15152;DHT22;7676;50.900;6.234;2023-03-26T08:17:20;9.30;99.90
15152;DHT22;7676;50.900;6.234;2023-03-26T08:32:25;8.30;99.90
15152;DHT22;7676;50.900;6.234;2023-03-26T09:02:58;7.60;99.90
15152;DHT22;7676;50.900;6.234;2023-03-26T10:35:25;7.60;99.90
15152;DHT22;7676;50.900;6.234;2023-03-26T10:50:56;7.80;99.90
15152;DHT22;7676;50.900;6.234;2023-03-26T11:06:15;7.70;99.90
15152;DHT22;7676;50.900;6.234;2023-03-26T11:37:36;10.00;99.90
15152;DHT22;7676;50.900;6.234;2023-03-26T11:52:39;10.30;99.90
15152;DHT22;7676;50.900;6.234;2023-03-26T12:07:46;10.50;99.90
15152;DHT22;7676;50.900;6.234;2023-03-26T12:22:56;10.90;99.90
15152;DHT22;7676;50.900;6.234;2023-03-26T13:24:29;9.70;99.90
15152;DHT22;7676;50.900;6.234;2023-03-26T13:40:00;9.40;99.90
15152;DHT22;7676;50.900;6.234;2023-03-26T13:55:21;9.40;99.90
15152;DHT22;7676;50.900;6.234;2023-03-26T14:10:28;9.10;99.90
15152;DHT22;7676;50.900;6.234;2023-03-26T14:41:24;8.30;99.90
15152;DHT22;7676;50.900;6.234;2023-03-26T15:27:36;8.70;99.90
15152;DHT22;7676;50.900;6.234;2023-03-26T16:13:29;8.60;99.90
15152;DHT22;7676;50.900;6.234;2023-03-26T16:44:09;8.30;99.90
15152;DHT22;7676;50.900;6.234;2023-03-26T16:59:38;8.30;99.90
15152;DHT22;7676;50.900;6.234;2023-03-26T17:45:55;7.40;99.90
15152;DHT22;7676;50.900;6.234;2023-03-26T18:01:22;7.50;99.90
15152;DHT22;7676;50.900;6.234;2023-03-26T18:16:36;7.40;99.90
15152;DHT22;7676;50.900;6.234;2023-03-26T18:31:41;7.20;99.90
15152;DHT22;7676;50.900;6.234;2023-03-26T18:46:44;7.00;99.90
15152;DHT22;7676;50.900;6.234;2023-03-26T19:01:47;7.10;99.90
15152;DHT22;7676;50.900;6.234;2023-03-26T19:16:56;6.80;99.90
15152;DHT22;7676;50.900;6.234;2023-03-26T19:32:13;6.70;99.90
15152;DHT22;7676;50.900;6.234;2023-03-26T19:47:19;6.50;99.90
15152;DHT22;7676;50.900;6.234;2023-03-26T20:02:36;6.50;99.90
15152;DHT22;7676;50.900;6.234;2023-03-26T20:17:40;6.50;99.90
15152;DHT22;7676;50.900;6.234;2023-03-26T20:32:44;6.60;99.90
15152;DHT22;7676;50.900;6.234;2023-03-26T20:47:48;6.90;99.90
15152;DHT22;7676;50.900;6.234;2023-03-26T21:02:53;6.10;99.90
15152;DHT22;7676;50.900;6.234;2023-03-26T21:17:56;5.90;99.90
15152;DHT22;7676;50.900;6.234;2023-03-26T21:32:59;5.70;99.90
15152;DHT22;7676;50.900;6.234;2023-03-26T21:48:02;5.60;99.90
15152;DHT22;7676;50.900;6.234;2023-03-26T22:03:58;5.70;99.90
15152;DHT22;7676;50.900;6.234;2023-03-26T22:18:52;5.40;99.90
15152;DHT22;7676;50.900;6.234;2023-03-26T22:33:55;5.40;99.90
15152;DHT22;7676;50.900;6.234;2023-03-26T22:48:58;5.30;99.90
15152;DHT22;7676;50.900;6.234;2023-03-26T23:04:00;4.90;99.90
15152;DHT22;7676;50.900;6.234;2023-03-26T23:19:04;4.70;99.90
15152;DHT22;7676;50.900;6.234;2023-03-26T23:34:06;5.40;99.90
15152;DHT22;7676;50.900;6.234;2023-03-26T23:49:09;5.40;99.90
